sensor_id;sensor_type;location;lat;lon;timestamp;pressure;altitude;pressure_sealevel;temperature;humidity
62436;BME280;48480;50.252;18.848;2023-11-21T00:01:20;97819.55;;;8.64;98.20
62436;BME280;48480;50.252;18.848;2023-11-21T00:04:05;97820.49;;;8.58;98.46
62436;BME280;48480;50.252;18.848;2023-11-21T00:06:51;97816.86;;;8.51;98.58
62436;BME280;48480;50.252;18.848;2023-11-21T00:09:35;97820.92;;;8.51;98.84
62436;BME280;48480;50.252;18.848;2023-11-21T00:12:20;97816.84;;;8.57;98.86
62436;BME280;48480;50.252;18.848;2023-11-21T00:15:04;97813.63;;;8.65;98.60
62436;BME280;48480;50.252;18.848;2023-11-21T00:17:54;97822.05;;;8.73;98.42
62436;BME280;48480;50.252;18.848;2023-11-21T00:20:38;97820.54;;;8.73;98.55
62436;BME280;48480;50.252;18.848;2023-11-21T00:23:22;97820.65;;;8.73;98.61
62436;BME280;48480;50.252;18.848;2023-11-21T00:26:06;97830.91;;;8.71;98.74
62436;BME280;48480;50.252;18.848;2023-11-21T00:28:50;97836.52;;;8.72;99.00
62436;BME280;48480;50.252;18.848;2023-11-21T00:31:34;97839.34;;;8.75;98.82
62436;BME280;48480;50.252;18.848;2023-11-21T00:34:22;97842.69;;;8.81;98.77
62436;BME280;48480;50.252;18.848;2023-11-21T00:37:07;97841.70;;;8.88;98.90
62436;BME280;48480;50.252;18.848;2023-11-21T00:39:51;97837.66;;;8.94;98.73
62436;BME280;48480;50.252;18.848;2023-11-21T00:42:35;97837.12;;;8.94;98.73
62436;BME280;48480;50.252;18.848;2023-11-21T00:45:20;97836.38;;;8.89;98.73
62436;BME280;48480;50.252;18.848;2023-11-21T00:48:03;97835.30;;;8.83;98.79
62436;BME280;48480;50.252;18.848;2023-11-21T00:50:48;97840.12;;;8.78;98.59
62436;BME280;48480;50.252;18.848;2023-11-21T00:53:34;97841.39;;;8.75;98.60
62436;BME280;48480;50.252;18.848;2023-11-21T00:56:18;97838.64;;;8.75;98.64
62436;BME280;48480;50.252;18.848;2023-11-21T00:59:02;97840.14;;;8.74;98.43
62436;BME280;48480;50.252;18.848;2023-11-21T01:01:48;97843.56;;;8.72;98.38
62436;BME280;48480;50.252;18.848;2023-11-21T01:04:33;97842.21;;;8.68;98.28
62436;BME280;48480;50.252;18.848;2023-11-21T01:07:16;97838.05;;;8.58;98.15
62436;BME280;48480;50.252;18.848;2023-11-21T01:10:04;97848.20;;;8.59;97.62
62436;BME280;48480;50.252;18.848;2023-11-21T01:12:52;97845.73;;;8.55;96.81
62436;BME280;48480;50.252;18.848;2023-11-21T01:15:36;97846.79;;;8.44;96.61
62436;BME280;48480;50.252;18.848;2023-11-21T01:18:20;97844.17;;;8.32;96.97
62436;BME280;48480;50.252;18.848;2023-11-21T01:21:04;97843.05;;;8.24;97.36
62436;BME280;48480;50.252;18.848;2023-11-21T01:23:48;97840.24;;;8.19;97.54
62436;BME280;48480;50.252;18.848;2023-11-21T01:26:33;97840.05;;;8.16;97.73
62436;BME280;48480;50.252;18.848;2023-11-21T01:29:18;97843.13;;;8.18;98.05
62436;BME280;48480;50.252;18.848;2023-11-21T01:32:03;97845.59;;;8.22;98.07
62436;BME280;48480;50.252;18.848;2023-11-21T01:34:50;97848.94;;;8.24;98.10
62436;BME280;48480;50.252;18.848;2023-11-21T01:37:34;97850.02;;;8.23;98.17
62436;BME280;48480;50.252;18.848;2023-11-21T01:40:18;97850.80;;;8.23;98.28
62436;BME280;48480;50.252;18.848;2023-11-21T01:43:02;97854.83;;;8.28;98.27
62436;BME280;48480;50.252;18.848;2023-11-21T01:45:47;97854.39;;;8.36;97.97
62436;BME280;48480;50.252;18.848;2023-11-21T01:48:30;97852.56;;;8.43;97.53
62436;BME280;48480;50.252;18.848;2023-11-21T01:51:16;97860.02;;;8.46;97.02
62436;BME280;48480;50.252;18.848;2023-11-21T01:54:00;97860.70;;;8.43;96.76
62436;BME280;48480;50.252;18.848;2023-11-21T01:56:46;97865.39;;;8.35;96.75
62436;BME280;48480;50.252;18.848;2023-11-21T01:59:34;97867.50;;;8.29;96.95
62436;BME280;48480;50.252;18.848;2023-11-21T02:02:18;97866.67;;;8.28;96.81
62436;BME280;48480;50.252;18.848;2023-11-21T02:05:03;97868.90;;;8.27;96.82
62436;BME280;48480;50.252;18.848;2023-11-21T02:07:47;97873.48;;;8.27;96.77
62436;BME280;48480;50.252;18.848;2023-11-21T02:10:31;97867.33;;;8.27;96.89
62436;BME280;48480;50.252;18.848;2023-11-21T02:13:16;97867.96;;;8.24;96.79
62436;BME280;48480;50.252;18.848;2023-11-21T02:16:01;97866.95;;;8.15;96.89
62436;BME280;48480;50.252;18.848;2023-11-21T02:18:51;97866.04;;;8.07;96.98
62436;BME280;48480;50.252;18.848;2023-11-21T02:21:35;97864.97;;;8.07;97.20
62436;BME280;48480;50.252;18.848;2023-11-21T02:24:24;97865.37;;;8.09;97.17
62436;BME280;48480;50.252;18.848;2023-11-21T02:27:07;97863.37;;;8.10;97.11
62436;BME280;48480;50.252;18.848;2023-11-21T02:29:52;97863.08;;;8.09;97.16
62436;BME280;48480;50.252;18.848;2023-11-21T02:32:36;97864.48;;;8.05;97.35
62436;BME280;48480;50.252;18.848;2023-11-21T02:35:20;97862.69;;;8.00;97.63
62436;BME280;48480;50.252;18.848;2023-11-21T02:38:05;97861.19;;;7.97;97.68
62436;BME280;48480;50.252;18.848;2023-11-21T02:40:50;97860.83;;;7.93;97.55
62436;BME280;48480;50.252;18.848;2023-11-21T02:43:33;97862.35;;;7.94;97.36
62436;BME280;48480;50.252;18.848;2023-11-21T02:46:17;97859.23;;;7.93;97.28
62436;BME280;48480;50.252;18.848;2023-11-21T02:49:03;97858.16;;;7.93;97.33
62436;BME280;48480;50.252;18.848;2023-11-21T02:51:47;97860.52;;;7.91;97.46
62436;BME280;48480;50.252;18.848;2023-11-21T02:54:31;97862.92;;;7.85;97.52
62436;BME280;48480;50.252;18.848;2023-11-21T02:57:19;97865.17;;;7.77;97.73
62436;BME280;48480;50.252;18.848;2023-11-21T03:00:04;97864.57;;;7.76;97.68
62436;BME280;48480;50.252;18.848;2023-11-21T03:02:58;97870.86;;;7.77;97.73
62436;BME280;48480;50.252;18.848;2023-11-21T03:05:43;97875.39;;;7.84;97.91
62436;BME280;48480;50.252;18.848;2023-11-21T03:08:26;97878.27;;;7.92;97.86
62436;BME280;48480;50.252;18.848;2023-11-21T03:11:11;97880.69;;;7.93;97.54
62436;BME280;48480;50.252;18.848;2023-11-21T03:13:56;97878.39;;;7.90;97.79
62436;BME280;48480;50.252;18.848;2023-11-21T03:16:40;97878.13;;;7.84;97.79
62436;BME280;48480;50.252;18.848;2023-11-21T03:19:24;97880.88;;;7.84;97.90
62436;BME280;48480;50.252;18.848;2023-11-21T03:22:09;97882.22;;;7.87;97.75
62436;BME280;48480;50.252;18.848;2023-11-21T03:24:53;97882.38;;;7.88;97.71
62436;BME280;48480;50.252;18.848;2023-11-21T03:27:37;97885.91;;;7.90;97.83
62436;BME280;48480;50.252;18.848;2023-11-21T03:30:22;97884.10;;;7.91;98.21
62436;BME280;48480;50.252;18.848;2023-11-21T03:33:06;97887.41;;;7.90;98.32
62436;BME280;48480;50.252;18.848;2023-11-21T03:35:51;97890.61;;;7.88;98.49
62436;BME280;48480;50.252;18.848;2023-11-21T03:38:37;97889.03;;;7.87;98.61
62436;BME280;48480;50.252;18.848;2023-11-21T03:41:21;97895.52;;;7.92;98.59
62436;BME280;48480;50.252;18.848;2023-11-21T03:44:05;97893.27;;;8.03;98.41
62436;BME280;48480;50.252;18.848;2023-11-21T03:46:49;97895.05;;;8.14;98.01
62436;BME280;48480;50.252;18.848;2023-11-21T03:49:33;97894.58;;;8.21;97.74
62436;BME280;48480;50.252;18.848;2023-11-21T03:52:17;97890.36;;;8.25;97.87
62436;BME280;48480;50.252;18.848;2023-11-21T03:55:01;97891.90;;;8.28;97.79
62436;BME280;48480;50.252;18.848;2023-11-21T03:57:46;97895.13;;;8.29;97.54
62436;BME280;48480;50.252;18.848;2023-11-21T04:00:30;97893.05;;;8.27;97.53
62436;BME280;48480;50.252;18.848;2023-11-21T04:03:14;97895.16;;;8.25;97.43
62436;BME280;48480;50.252;18.848;2023-11-21T04:05:58;97894.09;;;8.23;97.17
62436;BME280;48480;50.252;18.848;2023-11-21T04:08:42;97897.30;;;8.28;97.31
62436;BME280;48480;50.252;18.848;2023-11-21T04:11:26;97899.02;;;8.36;97.22
62436;BME280;48480;50.252;18.848;2023-11-21T04:14:11;97901.36;;;8.43;96.93
62436;BME280;48480;50.252;18.848;2023-11-21T04:16:55;97900.67;;;8.45;96.98
62436;BME280;48480;50.252;18.848;2023-11-21T04:19:39;97896.69;;;8.42;97.10
62436;BME280;48480;50.252;18.848;2023-11-21T04:22:23;97900.27;;;8.40;97.15
62436;BME280;48480;50.252;18.848;2023-11-21T04:25:11;97902.39;;;8.36;97.09
62436;BME280;48480;50.252;18.848;2023-11-21T04:27:56;97910.54;;;8.34;97.24
62436;BME280;48480;50.252;18.848;2023-11-21T04:30:40;97905.40;;;8.32;97.02
62436;BME280;48480;50.252;18.848;2023-11-21T04:33:27;97911.48;;;8.35;97.10
62436;BME280;48480;50.252;18.848;2023-11-21T04:36:11;97914.81;;;8.42;97.22
62436;BME280;48480;50.252;18.848;2023-11-21T04:38:56;97916.86;;;8.47;96.87
62436;BME280;48480;50.252;18.848;2023-11-21T04:41:40;97917.40;;;8.37;96.61
62436;BME280;48480;50.252;18.848;2023-11-21T04:44:24;97919.19;;;8.29;97.19
62436;BME280;48480;50.252;18.848;2023-11-21T04:47:08;97918.80;;;8.28;97.66
62436;BME280;48480;50.252;18.848;2023-11-21T04:49:52;97917.86;;;8.27;97.72
62436;BME280;48480;50.252;18.848;2023-11-21T04:52:36;97918.83;;;8.27;97.48
62436;BME280;48480;50.252;18.848;2023-11-21T04:55:20;97921.88;;;8.30;97.44
62436;BME280;48480;50.252;18.848;2023-11-21T04:58:04;97923.17;;;8.37;97.31
62436;BME280;48480;50.252;18.848;2023-11-21T05:00:48;97925.41;;;8.43;97.20
62436;BME280;48480;50.252;18.848;2023-11-21T05:03:33;97927.13;;;8.39;97.09
62436;BME280;48480;50.252;18.848;2023-11-21T05:06:17;97928.87;;;8.32;97.16
62436;BME280;48480;50.252;18.848;2023-11-21T05:09:02;97930.38;;;8.25;97.38
62436;BME280;48480;50.252;18.848;2023-11-21T05:11:46;97931.65;;;8.19;97.55
62436;BME280;48480;50.252;18.848;2023-11-21T05:14:30;97931.81;;;8.17;97.45
62436;BME280;48480;50.252;18.848;2023-11-21T05:17:14;97936.36;;;8.21;97.42
62436;BME280;48480;50.252;18.848;2023-11-21T05:19:58;97935.11;;;8.24;97.41
62436;BME280;48480;50.252;18.848;2023-11-21T05:22:42;97936.81;;;8.26;97.41
62436;BME280;48480;50.252;18.848;2023-11-21T05:25:26;97934.16;;;8.26;97.59
62436;BME280;48480;50.252;18.848;2023-11-21T05:28:09;97934.64;;;8.27;97.72
62436;BME280;48480;50.252;18.848;2023-11-21T05:30:53;97939.83;;;8.25;97.76
62436;BME280;48480;50.252;18.848;2023-11-21T05:33:38;97942.52;;;8.22;97.82
62436;BME280;48480;50.252;18.848;2023-11-21T05:36:22;97944.57;;;8.22;97.58
62436;BME280;48480;50.252;18.848;2023-11-21T05:39:06;97941.45;;;8.24;97.53
62436;BME280;48480;50.252;18.848;2023-11-21T05:41:50;97941.36;;;8.27;97.39
62436;BME280;48480;50.252;18.848;2023-11-21T05:44:34;97946.06;;;8.29;97.37
62436;BME280;48480;50.252;18.848;2023-11-21T05:47:18;97950.60;;;8.30;97.51
62436;BME280;48480;50.252;18.848;2023-11-21T05:50:04;97955.98;;;8.24;97.44
62436;BME280;48480;50.252;18.848;2023-11-21T05:52:49;97959.45;;;8.18;97.54
62436;BME280;48480;50.252;18.848;2023-11-21T05:55:33;97960.20;;;8.13;97.68
62436;BME280;48480;50.252;18.848;2023-11-21T05:58:17;97961.36;;;8.15;97.64
62436;BME280;48480;50.252;18.848;2023-11-21T06:01:05;97963.27;;;8.22;97.52
62436;BME280;48480;50.252;18.848;2023-11-21T06:03:51;97965.55;;;8.25;97.16
62436;BME280;48480;50.252;18.848;2023-11-21T06:06:36;97973.90;;;8.27;97.22
62436;BME280;48480;50.252;18.848;2023-11-21T06:09:20;97977.94;;;8.27;97.25
62436;BME280;48480;50.252;18.848;2023-11-21T06:12:05;97979.66;;;8.25;97.44
62436;BME280;48480;50.252;18.848;2023-11-21T06:14:49;97981.88;;;8.21;97.55
62436;BME280;48480;50.252;18.848;2023-11-21T06:17:33;97985.98;;;8.19;97.67
62436;BME280;48480;50.252;18.848;2023-11-21T06:20:20;97989.20;;;8.19;97.72
62436;BME280;48480;50.252;18.848;2023-11-21T06:23:05;97989.77;;;8.24;97.51
62436;BME280;48480;50.252;18.848;2023-11-21T06:25:49;97986.71;;;8.30;97.24
62436;BME280;48480;50.252;18.848;2023-11-21T06:28:33;97986.23;;;8.34;97.01
62436;BME280;48480;50.252;18.848;2023-11-21T06:31:17;97988.98;;;8.36;97.00
62436;BME280;48480;50.252;18.848;2023-11-21T06:34:01;97992.88;;;8.36;97.09
62436;BME280;48480;50.252;18.848;2023-11-21T06:36:47;97994.08;;;8.36;97.29
62436;BME280;48480;50.252;18.848;2023-11-21T06:39:31;98001.14;;;8.32;97.21
62436;BME280;48480;50.252;18.848;2023-11-21T06:42:15;97998.92;;;8.24;97.21
62436;BME280;48480;50.252;18.848;2023-11-21T06:44:59;97991.59;;;8.20;97.46
62436;BME280;48480;50.252;18.848;2023-11-21T06:47:47;98001.33;;;8.31;97.24
62436;BME280;48480;50.252;18.848;2023-11-21T06:50:32;98001.44;;;8.36;97.12
62436;BME280;48480;50.252;18.848;2023-11-21T06:53:16;97999.62;;;8.38;96.60
62436;BME280;48480;50.252;18.848;2023-11-21T06:55:59;98007.94;;;8.37;96.74
62436;BME280;48480;50.252;18.848;2023-11-21T06:58:45;98011.52;;;8.33;96.69
62436;BME280;48480;50.252;18.848;2023-11-21T07:01:30;98012.80;;;8.28;96.89
62436;BME280;48480;50.252;18.848;2023-11-21T07:04:14;98014.60;;;8.22;96.84
62436;BME280;48480;50.252;18.848;2023-11-21T07:06:57;98014.95;;;8.15;96.97
62436;BME280;48480;50.252;18.848;2023-11-21T07:09:41;98019.77;;;8.17;97.15
62436;BME280;48480;50.252;18.848;2023-11-21T07:12:26;98016.90;;;8.24;97.03
62436;BME280;48480;50.252;18.848;2023-11-21T07:15:10;98020.73;;;8.32;97.04
62436;BME280;48480;50.252;18.848;2023-11-21T07:17:54;98022.70;;;8.41;96.89
62436;BME280;48480;50.252;18.848;2023-11-21T07:20:38;98023.11;;;8.44;96.54
62436;BME280;48480;50.252;18.848;2023-11-21T07:23:23;98025.13;;;8.40;96.37
62436;BME280;48480;50.252;18.848;2023-11-21T07:26:07;98022.71;;;8.34;96.31
62436;BME280;48480;50.252;18.848;2023-11-21T07:28:53;98024.74;;;8.30;96.69
62436;BME280;48480;50.252;18.848;2023-11-21T07:31:38;98023.17;;;8.33;96.61
62436;BME280;48480;50.252;18.848;2023-11-21T07:34:22;98024.59;;;8.40;96.61
62436;BME280;48480;50.252;18.848;2023-11-21T07:37:06;98029.00;;;8.46;96.20
62436;BME280;48480;50.252;18.848;2023-11-21T07:39:50;98027.48;;;8.46;96.28
62436;BME280;48480;50.252;18.848;2023-11-21T07:42:39;98025.29;;;8.46;96.59
62436;BME280;48480;50.252;18.848;2023-11-21T07:45:23;98029.51;;;8.47;96.68
62436;BME280;48480;50.252;18.848;2023-11-21T07:48:07;98030.73;;;8.45;96.55
62436;BME280;48480;50.252;18.848;2023-11-21T07:50:51;98030.80;;;8.39;96.43
62436;BME280;48480;50.252;18.848;2023-11-21T07:53:36;98037.06;;;8.39;96.60
62436;BME280;48480;50.252;18.848;2023-11-21T07:56:21;98037.35;;;8.45;96.57
62436;BME280;48480;50.252;18.848;2023-11-21T07:59:04;98036.17;;;8.51;96.26
62436;BME280;48480;50.252;18.848;2023-11-21T08:01:48;98035.57;;;8.49;96.12
62436;BME280;48480;50.252;18.848;2023-11-21T08:04:33;98036.27;;;8.46;96.17
62436;BME280;48480;50.252;18.848;2023-11-21T08:07:19;98036.83;;;8.39;96.11
62436;BME280;48480;50.252;18.848;2023-11-21T08:10:03;98035.28;;;8.34;96.06
62436;BME280;48480;50.252;18.848;2023-11-21T08:12:48;98040.27;;;8.28;95.87
62436;BME280;48480;50.252;18.848;2023-11-21T08:15:34;98041.30;;;8.27;95.97
62436;BME280;48480;50.252;18.848;2023-11-21T08:18:20;98044.80;;;8.31;95.83
62436;BME280;48480;50.252;18.848;2023-11-21T08:21:05;98045.88;;;8.37;95.83
62436;BME280;48480;50.252;18.848;2023-11-21T08:23:49;98043.38;;;8.43;95.90
62436;BME280;48480;50.252;18.848;2023-11-21T08:26:37;98045.68;;;8.51;95.81
62436;BME280;48480;50.252;18.848;2023-11-21T08:29:21;98047.55;;;8.55;95.90
62436;BME280;48480;50.252;18.848;2023-11-21T08:32:07;98048.39;;;8.54;95.70
62436;BME280;48480;50.252;18.848;2023-11-21T08:34:51;98053.38;;;8.48;95.70
62436;BME280;48480;50.252;18.848;2023-11-21T08:37:35;98055.16;;;8.47;95.94
62436;BME280;48480;50.252;18.848;2023-11-21T08:40:22;98058.81;;;8.48;95.79
62436;BME280;48480;50.252;18.848;2023-11-21T08:43:07;98063.60;;;8.49;95.72
62436;BME280;48480;50.252;18.848;2023-11-21T08:45:55;98069.03;;;8.46;95.67
62436;BME280;48480;50.252;18.848;2023-11-21T08:48:40;98065.36;;;8.38;95.85
62436;BME280;48480;50.252;18.848;2023-11-21T08:51:25;98064.09;;;8.36;96.44
62436;BME280;48480;50.252;18.848;2023-11-21T08:54:09;98062.05;;;8.38;96.47
62436;BME280;48480;50.252;18.848;2023-11-21T08:56:54;98062.77;;;8.40;96.11
62436;BME280;48480;50.252;18.848;2023-11-21T08:59:38;98065.22;;;8.46;96.07
62436;BME280;48480;50.252;18.848;2023-11-21T09:02:22;98068.07;;;8.52;96.11
62436;BME280;48480;50.252;18.848;2023-11-21T09:05:14;98068.48;;;8.57;96.05
62436;BME280;48480;50.252;18.848;2023-11-21T09:07:58;98070.75;;;8.57;96.14
62436;BME280;48480;50.252;18.848;2023-11-21T09:10:42;98071.34;;;8.54;96.24
62436;BME280;48480;50.252;18.848;2023-11-21T09:13:30;98070.96;;;8.51;96.15
62436;BME280;48480;50.252;18.848;2023-11-21T09:16:15;98074.41;;;8.50;96.08
62436;BME280;48480;50.252;18.848;2023-11-21T09:19:02;98073.91;;;8.55;95.93
62436;BME280;48480;50.252;18.848;2023-11-21T09:21:49;98070.98;;;8.60;95.85
62436;BME280;48480;50.252;18.848;2023-11-21T09:24:34;98069.67;;;8.67;95.90
62436;BME280;48480;50.252;18.848;2023-11-21T09:27:18;98065.84;;;8.71;95.58
62436;BME280;48480;50.252;18.848;2023-11-21T09:30:03;98064.12;;;8.75;95.75
62436;BME280;48480;50.252;18.848;2023-11-21T09:32:49;98060.98;;;8.84;95.97
62436;BME280;48480;50.252;18.848;2023-11-21T09:35:34;98058.52;;;8.92;95.25
62436;BME280;48480;50.252;18.848;2023-11-21T09:38:18;98058.80;;;9.05;95.19
62436;BME280;48480;50.252;18.848;2023-11-21T09:41:19;98060.00;;;9.27;94.30
62436;BME280;48480;50.252;18.848;2023-11-21T09:44:07;98063.91;;;9.46;93.60
62436;BME280;48480;50.252;18.848;2023-11-21T09:46:57;98063.52;;;9.52;93.02
62436;BME280;48480;50.252;18.848;2023-11-21T09:49:47;98059.84;;;9.54;92.76
62436;BME280;48480;50.252;18.848;2023-11-21T09:52:32;98058.16;;;9.49;91.80
62436;BME280;48480;50.252;18.848;2023-11-21T09:55:22;98060.69;;;9.46;91.45
62436;BME280;48480;50.252;18.848;2023-11-21T09:58:09;98059.52;;;9.45;90.60
62436;BME280;48480;50.252;18.848;2023-11-21T10:00:57;98058.19;;;9.33;90.41
62436;BME280;48480;50.252;18.848;2023-11-21T10:03:43;98061.30;;;9.23;90.75
62436;BME280;48480;50.252;18.848;2023-11-21T10:06:28;98065.43;;;9.12;90.75
62436;BME280;48480;50.252;18.848;2023-11-21T10:09:14;98062.58;;;9.03;90.90
62436;BME280;48480;50.252;18.848;2023-11-21T10:11:59;98059.58;;;8.95;90.86
62436;BME280;48480;50.252;18.848;2023-11-21T10:14:48;98061.69;;;8.91;91.12
62436;BME280;48480;50.252;18.848;2023-11-21T10:17:35;98064.67;;;8.91;91.43
62436;BME280;48480;50.252;18.848;2023-11-21T10:20:26;98066.66;;;8.97;91.94
62436;BME280;48480;50.252;18.848;2023-11-21T10:23:11;98069.31;;;9.01;92.13
62436;BME280;48480;50.252;18.848;2023-11-21T10:25:57;98069.34;;;9.00;92.07
62436;BME280;48480;50.252;18.848;2023-11-21T10:28:57;98073.58;;;8.99;91.92
62436;BME280;48480;50.252;18.848;2023-11-21T10:31:41;98074.48;;;8.94;91.12
62436;BME280;48480;50.252;18.848;2023-11-21T10:34:25;98070.49;;;8.86;90.15
62436;BME280;48480;50.252;18.848;2023-11-21T10:37:13;98070.73;;;8.76;89.57
62436;BME280;48480;50.252;18.848;2023-11-21T10:39:59;98070.88;;;8.75;89.73
62436;BME280;48480;50.252;18.848;2023-11-21T10:42:43;98070.76;;;8.79;89.61
62436;BME280;48480;50.252;18.848;2023-11-21T10:45:27;98067.95;;;8.87;89.68
62436;BME280;48480;50.252;18.848;2023-11-21T10:48:14;98066.41;;;8.92;89.62
62436;BME280;48480;50.252;18.848;2023-11-21T10:51:06;98066.77;;;8.93;89.21
62436;BME280;48480;50.252;18.848;2023-11-21T10:53:51;98066.66;;;8.89;89.24
62436;BME280;48480;50.252;18.848;2023-11-21T10:56:36;98068.36;;;8.91;89.31
62436;BME280;48480;50.252;18.848;2023-11-21T10:59:35;98067.63;;;8.96;89.52
62436;BME280;48480;50.252;18.848;2023-11-21T11:02:24;98065.23;;;8.93;88.91
62436;BME280;48480;50.252;18.848;2023-11-21T11:05:12;98066.15;;;8.87;88.31
62436;BME280;48480;50.252;18.848;2023-11-21T11:08:07;98067.27;;;8.76;88.34
62436;BME280;48480;50.252;18.848;2023-11-21T11:10:53;98066.41;;;8.69;88.70
62436;BME280;48480;50.252;18.848;2023-11-21T11:13:37;98070.31;;;8.72;89.11
62436;BME280;48480;50.252;18.848;2023-11-21T11:16:22;98066.59;;;8.81;88.86
62436;BME280;48480;50.252;18.848;2023-11-21T11:19:09;98064.73;;;8.87;88.65
62436;BME280;48480;50.252;18.848;2023-11-21T11:25:19;98062.98;;;8.81;88.14
62436;BME280;48480;50.252;18.848;2023-11-21T11:28:10;98065.25;;;8.75;88.55
62436;BME280;48480;50.252;18.848;2023-11-21T11:31:14;98064.63;;;8.78;88.45
62436;BME280;48480;50.252;18.848;2023-11-21T11:37:05;98064.73;;;8.84;88.75
62436;BME280;48480;50.252;18.848;2023-11-21T11:39:52;98062.52;;;8.84;88.30
62436;BME280;48480;50.252;18.848;2023-11-21T11:42:37;98065.19;;;8.84;87.71
62436;BME280;48480;50.252;18.848;2023-11-21T11:45:21;98065.48;;;8.82;87.45
62436;BME280;48480;50.252;18.848;2023-11-21T11:48:05;98065.83;;;8.83;87.58
62436;BME280;48480;50.252;18.848;2023-11-21T11:51:12;98067.25;;;8.87;87.98
62436;BME280;48480;50.252;18.848;2023-11-21T11:53:57;98070.67;;;8.89;88.16
62436;BME280;48480;50.252;18.848;2023-11-21T11:56:41;98073.42;;;8.90;88.05
62436;BME280;48480;50.252;18.848;2023-11-21T11:59:26;98070.48;;;8.95;87.41
62436;BME280;48480;50.252;18.848;2023-11-21T12:02:10;98074.05;;;9.01;87.34
62436;BME280;48480;50.252;18.848;2023-11-21T12:04:55;98073.97;;;8.97;86.13
62436;BME280;48480;50.252;18.848;2023-11-21T12:07:48;98080.08;;;8.84;86.23
62436;BME280;48480;50.252;18.848;2023-11-21T12:10:35;98081.27;;;8.68;86.36
62436;BME280;48480;50.252;18.848;2023-11-21T12:13:19;98081.21;;;8.60;86.48
62436;BME280;48480;50.252;18.848;2023-11-21T12:16:04;98077.55;;;8.58;86.81
62436;BME280;48480;50.252;18.848;2023-11-21T12:18:50;98079.40;;;8.55;87.09
62436;BME280;48480;50.252;18.848;2023-11-21T12:21:34;98075.98;;;8.50;86.94
62436;BME280;48480;50.252;18.848;2023-11-21T12:24:19;98079.23;;;8.44;87.17
62436;BME280;48480;50.252;18.848;2023-11-21T12:27:04;98073.02;;;8.40;87.45
62436;BME280;48480;50.252;18.848;2023-11-21T12:29:48;98074.50;;;8.45;87.54
62436;BME280;48480;50.252;18.848;2023-11-21T12:32:32;98075.02;;;8.47;87.77
62436;BME280;48480;50.252;18.848;2023-11-21T12:35:17;98071.49;;;8.37;88.16
62436;BME280;48480;50.252;18.848;2023-11-21T12:38:04;98076.28;;;8.32;88.70
62436;BME280;48480;50.252;18.848;2023-11-21T12:40:49;98077.20;;;8.33;89.10
62436;BME280;48480;50.252;18.848;2023-11-21T12:43:34;98077.69;;;8.39;89.08
62436;BME280;48480;50.252;18.848;2023-11-21T12:46:18;98077.63;;;8.42;88.95
62436;BME280;48480;50.252;18.848;2023-11-21T12:49:03;98078.58;;;8.40;89.04
62436;BME280;48480;50.252;18.848;2023-11-21T12:51:47;98077.80;;;8.35;89.32
62436;BME280;48480;50.252;18.848;2023-11-21T12:54:31;98080.54;;;8.28;89.92
62436;BME280;48480;50.252;18.848;2023-11-21T12:57:15;98085.82;;;8.27;90.33
62436;BME280;48480;50.252;18.848;2023-11-21T12:59:59;98085.58;;;8.28;90.54
62436;BME280;48480;50.252;18.848;2023-11-21T13:02:46;98083.18;;;8.26;90.94
62436;BME280;48480;50.252;18.848;2023-11-21T13:05:34;98091.45;;;8.30;91.53
62436;BME280;48480;50.252;18.848;2023-11-21T13:08:20;98093.61;;;8.27;92.02
62436;BME280;48480;50.252;18.848;2023-11-21T13:11:06;98094.11;;;8.33;92.54
62436;BME280;48480;50.252;18.848;2023-11-21T13:13:51;98095.80;;;8.42;92.43
62436;BME280;48480;50.252;18.848;2023-11-21T13:16:37;98096.67;;;8.48;92.22
62436;BME280;48480;50.252;18.848;2023-11-21T13:19:23;98096.20;;;8.47;92.36
62436;BME280;48480;50.252;18.848;2023-11-21T13:22:08;98100.67;;;8.48;92.78
62436;BME280;48480;50.252;18.848;2023-11-21T13:24:55;98098.73;;;8.52;93.11
62436;BME280;48480;50.252;18.848;2023-11-21T13:27:39;98102.38;;;8.55;92.95
62436;BME280;48480;50.252;18.848;2023-11-21T13:30:25;98105.67;;;8.61;92.42
62436;BME280;48480;50.252;18.848;2023-11-21T13:33:17;98105.13;;;8.67;92.23
62436;BME280;48480;50.252;18.848;2023-11-21T13:36:01;98108.10;;;8.75;91.91
62436;BME280;48480;50.252;18.848;2023-11-21T13:38:46;98109.79;;;8.83;91.61
62436;BME280;48480;50.252;18.848;2023-11-21T13:41:33;98106.80;;;8.83;91.00
62436;BME280;48480;50.252;18.848;2023-11-21T13:44:17;98106.49;;;8.77;91.00
62436;BME280;48480;50.252;18.848;2023-11-21T13:47:10;98110.95;;;8.69;91.09
62436;BME280;48480;50.252;18.848;2023-11-21T13:49:53;98108.23;;;8.63;91.20
62436;BME280;48480;50.252;18.848;2023-11-21T13:52:37;98110.16;;;8.57;91.32
62436;BME280;48480;50.252;18.848;2023-11-21T13:55:22;98109.61;;;8.58;91.60
62436;BME280;48480;50.252;18.848;2023-11-21T13:58:09;98113.36;;;8.65;91.55
62436;BME280;48480;50.252;18.848;2023-11-21T14:00:56;98114.06;;;8.65;91.49
62436;BME280;48480;50.252;18.848;2023-11-21T14:03:41;98116.39;;;8.58;91.48
62436;BME280;48480;50.252;18.848;2023-11-21T14:06:36;98118.35;;;8.49;91.94
62436;BME280;48480;50.252;18.848;2023-11-21T14:09:31;98117.48;;;8.41;92.20
62436;BME280;48480;50.252;18.848;2023-11-21T14:12:27;98122.30;;;8.39;92.52
62436;BME280;48480;50.252;18.848;2023-11-21T14:15:12;98122.06;;;8.44;92.67
62436;BME280;48480;50.252;18.848;2023-11-21T14:18:01;98121.02;;;8.49;92.57
62436;BME280;48480;50.252;18.848;2023-11-21T14:20:49;98121.50;;;8.52;92.60
62436;BME280;48480;50.252;18.848;2023-11-21T14:23:34;98123.88;;;8.49;92.87
62436;BME280;48480;50.252;18.848;2023-11-21T14:26:19;98125.30;;;8.44;93.16
62436;BME280;48480;50.252;18.848;2023-11-21T14:29:04;98122.86;;;8.37;93.40
62436;BME280;48480;50.252;18.848;2023-11-21T14:31:49;98123.56;;;8.31;93.67
62436;BME280;48480;50.252;18.848;2023-11-21T14:34:34;98127.85;;;8.31;93.77
62436;BME280;48480;50.252;18.848;2023-11-21T14:37:18;98133.80;;;8.36;93.80
62436;BME280;48480;50.252;18.848;2023-11-21T14:40:04;98135.42;;;8.42;93.89
62436;BME280;48480;50.252;18.848;2023-11-21T14:42:51;98135.63;;;8.42;93.99